KHWY

Details ICAO KHWY
Name WARRENTON FAUQUIER
Region United States
Timezone America/New_York (UTC-5.0)
Plans Departing 6
Arriving 2
Stats Elevation 337 ft / 103 m (AMSL)
Location 38.587973° -77.712418°
Runways 1
Magnetic Variation 10.364° W
Sunrise 2017-12-15 12:22:55 UTC / 2017-12-15 07:22:55 Local
Sunset 2017-12-15 21:52:05 UTC / 2017-12-15 16:52:05 Local
Advertisement - Login to hide

Runways

ID Width Length Bearing (true) Bearing (mag) Surface Threshold Offset Overrun Length
15 100 ft / 30 m 5,002 ft / 1,524 m 138.93° 149.29° Asphalt 0 ft / 0 m 0 ft / 0 m
33 100 ft / 30 m 5,002 ft / 1,524 m 318.94° 329.30° Asphalt 0 ft / 0 m 0 ft / 0 m

Approach Navaids

Runway Type Ident Frequency Range Bearing (true) Bearing (mag) Slope Elevation
15 Localiser IHWY 109.75 MHz 18 nm / 33 km 138.94° 149.30° - 337 ft / 103 m (AMSL)
15 DME IHWY 109.75 MHz 18 nm / 33 km - - - 337 ft / 103 m (AMSL)

Map

Weather


0- 5 10 15 20 25 30 35+ Temperature / ° C

Clouds and Precipitation
Forecast for 2017-12-15 06:00 UTC. Updated 2 hours ago

Ground ~20,000 ft ~40,000 ft Winds

METAR

KHWY 150455Z AUTO 00000KT 10SM CLR M02/M11 A3010 RMK AO2 T10181113

TAF

Not found

Frequencies

Unicom 122.70 MHz CTAF/UNICOM
Approach 124.65 MHz POTOMAC APP/DEP
Warning: Do not use this data for real-world aviation or navigation. No guarantee of current accuracy is given.